sensor_id;sensor_type;location;lat;lon;timestamp;P1;durP1;ratioP1;P2;durP2;ratioP2
60472;SDS011;46318;52.716;6.444;2023-08-08T00:01:23;5.38;;;4.32;;
60472;SDS011;46318;52.716;6.444;2023-08-08T00:03:49;5.55;;;3.97;;
60472;SDS011;46318;52.716;6.444;2023-08-08T00:06:15;6.25;;;3.80;;
60472;SDS011;46318;52.716;6.444;2023-08-08T00:08:41;6.28;;;3.65;;
60472;SDS011;46318;52.716;6.444;2023-08-08T00:11:07;4.60;;;3.95;;
60472;SDS011;46318;52.716;6.444;2023-08-08T00:13:33;4.50;;;3.85;;
60472;SDS011;46318;52.716;6.444;2023-08-08T00:15:59;4.25;;;3.70;;
60472;SDS011;46318;52.716;6.444;2023-08-08T00:18:25;4.05;;;3.50;;
60472;SDS011;46318;52.716;6.444;2023-08-08T00:20:51;6.55;;;3.95;;
60472;SDS011;46318;52.716;6.444;2023-08-08T00:23:19;7.20;;;4.32;;
60472;SDS011;46318;52.716;6.444;2023-08-08T00:25:45;5.55;;;4.10;;
60472;SDS011;46318;52.716;6.444;2023-08-08T00:28:15;4.57;;;3.92;;
60472;SDS011;46318;52.716;6.444;2023-08-08T00:30:41;4.82;;;3.78;;
60472;SDS011;46318;52.716;6.444;2023-08-08T00:33:07;4.68;;;3.97;;
60472;SDS011;46318;52.716;6.444;2023-08-08T00:35:33;5.68;;;4.07;;
60472;SDS011;46318;52.716;6.444;2023-08-08T00:37:59;6.90;;;4.15;;
60472;SDS011;46318;52.716;6.444;2023-08-08T00:40:25;8.20;;;4.05;;
60472;SDS011;46318;52.716;6.444;2023-08-08T00:42:51;6.30;;;3.83;;
60472;SDS011;46318;52.716;6.444;2023-08-08T00:45:17;6.45;;;4.05;;
60472;SDS011;46318;52.716;6.444;2023-08-08T00:47:43;7.82;;;4.80;;
60472;SDS011;46318;52.716;6.444;2023-08-08T00:50:09;4.35;;;3.90;;
60472;SDS011;46318;52.716;6.444;2023-08-08T00:52:37;5.25;;;3.75;;
60472;SDS011;46318;52.716;6.444;2023-08-08T00:55:04;4.88;;;4.13;;
60472;SDS011;46318;52.716;6.444;2023-08-08T00:57:31;5.35;;;4.18;;
60472;SDS011;46318;52.716;6.444;2023-08-08T00:59:57;7.97;;;4.47;;
60472;SDS011;46318;52.716;6.444;2023-08-08T01:02:23;5.00;;;4.38;;
60472;SDS011;46318;52.716;6.444;2023-08-08T01:04:49;6.25;;;4.40;;
60472;SDS011;46318;52.716;6.444;2023-08-08T01:10:06;8.65;;;4.82;;
60472;SDS011;46318;52.716;6.444;2023-08-08T01:12:42;5.65;;;3.80;;
60472;SDS011;46318;52.716;6.444;2023-08-08T01:15:17;8.85;;;4.20;;
60472;SDS011;46318;52.716;6.444;2023-08-08T01:17:44;6.97;;;4.57;;
60472;SDS011;46318;52.716;6.444;2023-08-08T01:20:11;8.13;;;4.22;;
60472;SDS011;46318;52.716;6.444;2023-08-08T01:22:50;5.10;;;4.10;;
60472;SDS011;46318;52.716;6.444;2023-08-08T01:25:49;4.60;;;3.45;;
60472;SDS011;46318;52.716;6.444;2023-08-08T01:28:15;9.38;;;4.63;;
60472;SDS011;46318;52.716;6.444;2023-08-08T01:30:41;4.50;;;3.92;;
60472;SDS011;46318;52.716;6.444;2023-08-08T01:33:08;5.78;;;4.43;;
60472;SDS011;46318;52.716;6.444;2023-08-08T01:35:36;7.80;;;4.43;;
60472;SDS011;46318;52.716;6.444;2023-08-08T01:38:12;5.70;;;3.85;;
60472;SDS011;46318;52.716;6.444;2023-08-08T01:40:45;10.93;;;4.90;;
60472;SDS011;46318;52.716;6.444;2023-08-08T01:43:12;7.18;;;4.68;;
60472;SDS011;46318;52.716;6.444;2023-08-08T01:45:40;8.80;;;4.68;;
60472;SDS011;46318;52.716;6.444;2023-08-08T01:48:07;7.47;;;4.95;;
60472;SDS011;46318;52.716;6.444;2023-08-08T01:50:34;8.40;;;4.80;;
60472;SDS011;46318;52.716;6.444;2023-08-08T01:53:01;6.68;;;4.65;;
60472;SDS011;46318;52.716;6.444;2023-08-08T01:55:27;6.40;;;4.47;;
60472;SDS011;46318;52.716;6.444;2023-08-08T01:57:53;9.38;;;4.72;;
60472;SDS011;46318;52.716;6.444;2023-08-08T02:00:19;7.45;;;5.32;;
60472;SDS011;46318;52.716;6.444;2023-08-08T02:02:45;8.15;;;5.45;;
60472;SDS011;46318;52.716;6.444;2023-08-08T02:05:11;9.60;;;6.25;;
60472;SDS011;46318;52.716;6.444;2023-08-08T02:07:37;9.27;;;5.38;;
60472;SDS011;46318;52.716;6.444;2023-08-08T02:10:03;8.75;;;5.50;;
60472;SDS011;46318;52.716;6.444;2023-08-08T02:12:29;7.38;;;4.70;;
60472;SDS011;46318;52.716;6.444;2023-08-08T02:14:58;8.32;;;5.80;;
60472;SDS011;46318;52.716;6.444;2023-08-08T02:17:24;9.48;;;5.38;;
60472;SDS011;46318;52.716;6.444;2023-08-08T02:19:51;9.82;;;5.38;;
60472;SDS011;46318;52.716;6.444;2023-08-08T02:22:17;10.63;;;5.82;;
60472;SDS011;46318;52.716;6.444;2023-08-08T02:24:43;11.05;;;5.97;;
60472;SDS011;46318;52.716;6.444;2023-08-08T02:27:11;10.57;;;5.78;;
60472;SDS011;46318;52.716;6.444;2023-08-08T02:29:37;10.65;;;6.15;;
60472;SDS011;46318;52.716;6.444;2023-08-08T02:32:03;11.93;;;5.43;;
60472;SDS011;46318;52.716;6.444;2023-08-08T02:34:29;10.32;;;5.13;;
60472;SDS011;46318;52.716;6.444;2023-08-08T02:36:55;12.00;;;6.13;;
60472;SDS011;46318;52.716;6.444;2023-08-08T02:39:21;12.32;;;5.45;;
60472;SDS011;46318;52.716;6.444;2023-08-08T02:41:47;8.68;;;5.53;;
60472;SDS011;46318;52.716;6.444;2023-08-08T02:44:13;8.00;;;5.43;;
60472;SDS011;46318;52.716;6.444;2023-08-08T02:46:39;9.82;;;5.78;;
60472;SDS011;46318;52.716;6.444;2023-08-08T02:49:04;9.90;;;6.00;;
60472;SDS011;46318;52.716;6.444;2023-08-08T02:51:30;8.35;;;6.03;;
60472;SDS011;46318;52.716;6.444;2023-08-08T02:53:56;8.35;;;5.07;;
60472;SDS011;46318;52.716;6.444;2023-08-08T02:56:22;8.48;;;5.68;;
60472;SDS011;46318;52.716;6.444;2023-08-08T02:58:48;8.75;;;5.38;;
60472;SDS011;46318;52.716;6.444;2023-08-08T03:01:14;11.07;;;4.85;;
60472;SDS011;46318;52.716;6.444;2023-08-08T03:03:41;11.70;;;5.30;;
60472;SDS011;46318;52.716;6.444;2023-08-08T03:06:07;10.75;;;5.82;;
60472;SDS011;46318;52.716;6.444;2023-08-08T03:08:33;10.48;;;5.13;;
60472;SDS011;46318;52.716;6.444;2023-08-08T03:10:59;9.40;;;5.18;;
60472;SDS011;46318;52.716;6.444;2023-08-08T03:13:26;6.40;;;4.85;;
60472;SDS011;46318;52.716;6.444;2023-08-08T03:15:51;9.48;;;4.90;;
60472;SDS011;46318;52.716;6.444;2023-08-08T03:18:17;11.15;;;5.45;;
60472;SDS011;46318;52.716;6.444;2023-08-08T03:20:43;7.78;;;4.63;;
60472;SDS011;46318;52.716;6.444;2023-08-08T03:23:09;7.60;;;4.72;;
60472;SDS011;46318;52.716;6.444;2023-08-08T03:25:35;10.77;;;6.10;;
60472;SDS011;46318;52.716;6.444;2023-08-08T03:28:01;10.13;;;4.72;;
60472;SDS011;46318;52.716;6.444;2023-08-08T03:30:27;7.13;;;4.07;;
60472;SDS011;46318;52.716;6.444;2023-08-08T03:32:53;8.15;;;4.70;;
60472;SDS011;46318;52.716;6.444;2023-08-08T03:35:18;7.70;;;4.38;;
60472;SDS011;46318;52.716;6.444;2023-08-08T03:37:44;7.15;;;4.07;;
60472;SDS011;46318;52.716;6.444;2023-08-08T03:40:10;4.57;;;4.10;;
60472;SDS011;46318;52.716;6.444;2023-08-08T03:42:39;5.35;;;4.32;;
60472;SDS011;46318;52.716;6.444;2023-08-08T03:45:07;6.20;;;3.83;;
60472;SDS011;46318;52.716;6.444;2023-08-08T03:47:34;8.35;;;4.07;;
60472;SDS011;46318;52.716;6.444;2023-08-08T03:50:00;9.13;;;4.00;;
60472;SDS011;46318;52.716;6.444;2023-08-08T03:52:25;6.72;;;3.50;;
60472;SDS011;46318;52.716;6.444;2023-08-08T03:54:51;7.38;;;3.58;;
60472;SDS011;46318;52.716;6.444;2023-08-08T03:57:18;6.78;;;3.60;;
60472;SDS011;46318;52.716;6.444;2023-08-08T03:59:43;6.13;;;3.42;;
60472;SDS011;46318;52.716;6.444;2023-08-08T04:02:09;6.03;;;3.20;;
60472;SDS011;46318;52.716;6.444;2023-08-08T04:04:38;4.70;;;2.88;;
60472;SDS011;46318;52.716;6.444;2023-08-08T04:07:04;7.32;;;3.67;;
60472;SDS011;46318;52.716;6.444;2023-08-08T04:09:30;4.55;;;2.80;;
60472;SDS011;46318;52.716;6.444;2023-08-08T04:11:56;7.28;;;2.67;;
60472;SDS011;46318;52.716;6.444;2023-08-08T04:14:22;6.35;;;3.17;;
60472;SDS011;46318;52.716;6.444;2023-08-08T04:16:48;8.40;;;3.65;;
60472;SDS011;46318;52.716;6.444;2023-08-08T04:19:14;4.60;;;2.80;;
60472;SDS011;46318;52.716;6.444;2023-08-08T04:21:40;7.05;;;2.60;;
60472;SDS011;46318;52.716;6.444;2023-08-08T04:24:06;5.55;;;2.55;;
60472;SDS011;46318;52.716;6.444;2023-08-08T04:26:33;5.70;;;2.80;;
60472;SDS011;46318;52.716;6.444;2023-08-08T04:28:59;3.88;;;2.38;;
60472;SDS011;46318;52.716;6.444;2023-08-08T04:31:25;6.35;;;3.42;;
60472;SDS011;46318;52.716;6.444;2023-08-08T04:33:51;5.70;;;2.63;;
60472;SDS011;46318;52.716;6.444;2023-08-08T04:36:23;4.03;;;2.20;;
60472;SDS011;46318;52.716;6.444;2023-08-08T04:38:50;5.38;;;2.53;;
60472;SDS011;46318;52.716;6.444;2023-08-08T04:41:16;4.53;;;2.28;;
60472;SDS011;46318;52.716;6.444;2023-08-08T04:43:42;4.93;;;2.40;;
60472;SDS011;46318;52.716;6.444;2023-08-08T04:46:08;10.80;;;2.42;;
60472;SDS011;46318;52.716;6.444;2023-08-08T04:48:35;7.47;;;2.45;;
60472;SDS011;46318;52.716;6.444;2023-08-08T04:51:03;5.63;;;2.53;;
60472;SDS011;46318;52.716;6.444;2023-08-08T04:53:30;5.75;;;2.28;;
60472;SDS011;46318;52.716;6.444;2023-08-08T04:55:56;4.75;;;2.00;;
60472;SDS011;46318;52.716;6.444;2023-08-08T04:58:22;5.22;;;2.35;;
60472;SDS011;46318;52.716;6.444;2023-08-08T05:00:48;4.85;;;2.30;;
60472;SDS011;46318;52.716;6.444;2023-08-08T05:03:16;4.28;;;1.73;;
60472;SDS011;46318;52.716;6.444;2023-08-08T05:05:43;4.78;;;1.90;;
60472;SDS011;46318;52.716;6.444;2023-08-08T05:08:15;3.95;;;2.05;;
60472;SDS011;46318;52.716;6.444;2023-08-08T05:10:41;6.88;;;2.30;;
60472;SDS011;46318;52.716;6.444;2023-08-08T05:13:10;4.38;;;1.92;;
60472;SDS011;46318;52.716;6.444;2023-08-08T05:15:37;6.15;;;2.25;;
60472;SDS011;46318;52.716;6.444;2023-08-08T05:18:04;5.70;;;2.03;;
60472;SDS011;46318;52.716;6.444;2023-08-08T05:20:30;6.55;;;1.60;;
60472;SDS011;46318;52.716;6.444;2023-08-08T05:22:56;4.00;;;1.67;;
60472;SDS011;46318;52.716;6.444;2023-08-08T05:25:21;4.80;;;1.92;;
60472;SDS011;46318;52.716;6.444;2023-08-08T05:27:47;7.80;;;1.90;;
60472;SDS011;46318;52.716;6.444;2023-08-08T05:30:15;6.85;;;2.13;;
60472;SDS011;46318;52.716;6.444;2023-08-08T05:32:43;7.78;;;1.63;;
60472;SDS011;46318;52.716;6.444;2023-08-08T05:35:09;4.22;;;2.08;;
60472;SDS011;46318;52.716;6.444;2023-08-08T05:37:35;5.18;;;1.73;;
60472;SDS011;46318;52.716;6.444;2023-08-08T05:40:01;2.67;;;1.63;;
60472;SDS011;46318;52.716;6.444;2023-08-08T05:42:31;7.13;;;2.00;;
60472;SDS011;46318;52.716;6.444;2023-08-08T05:44:57;4.95;;;1.67;;
60472;SDS011;46318;52.716;6.444;2023-08-08T05:47:23;4.35;;;1.65;;
60472;SDS011;46318;52.716;6.444;2023-08-08T05:49:49;3.45;;;1.58;;
60472;SDS011;46318;52.716;6.444;2023-08-08T05:52:18;3.28;;;1.50;;
60472;SDS011;46318;52.716;6.444;2023-08-08T05:54:44;3.70;;;1.60;;
60472;SDS011;46318;52.716;6.444;2023-08-08T05:57:10;4.57;;;1.85;;
60472;SDS011;46318;52.716;6.444;2023-08-08T05:59:36;7.63;;;1.40;;
60472;SDS011;46318;52.716;6.444;2023-08-08T06:02:02;4.65;;;1.52;;
60472;SDS011;46318;52.716;6.444;2023-08-08T06:04:28;3.50;;;1.60;;
60472;SDS011;46318;52.716;6.444;2023-08-08T06:06:54;7.07;;;1.85;;
60472;SDS011;46318;52.716;6.444;2023-08-08T06:09:19;2.42;;;1.30;;
60472;SDS011;46318;52.716;6.444;2023-08-08T06:11:48;5.10;;;1.50;;
60472;SDS011;46318;52.716;6.444;2023-08-08T06:14:14;5.53;;;1.73;;
60472;SDS011;46318;52.716;6.444;2023-08-08T06:16:42;6.75;;;2.10;;
60472;SDS011;46318;52.716;6.444;2023-08-08T06:19:08;6.00;;;1.50;;
60472;SDS011;46318;52.716;6.444;2023-08-08T06:21:36;4.55;;;1.52;;
60472;SDS011;46318;52.716;6.444;2023-08-08T06:24:02;10.48;;;1.83;;
60472;SDS011;46318;52.716;6.444;2023-08-08T06:26:29;5.53;;;2.03;;
60472;SDS011;46318;52.716;6.444;2023-08-08T06:28:55;5.43;;;1.73;;
60472;SDS011;46318;52.716;6.444;2023-08-08T06:31:21;3.05;;;1.30;;
60472;SDS011;46318;52.716;6.444;2023-08-08T06:33:48;5.60;;;1.90;;
60472;SDS011;46318;52.716;6.444;2023-08-08T06:36:14;4.07;;;1.48;;
60472;SDS011;46318;52.716;6.444;2023-08-08T06:38:40;4.28;;;1.73;;
60472;SDS011;46318;52.716;6.444;2023-08-08T06:41:06;5.35;;;1.50;;
60472;SDS011;46318;52.716;6.444;2023-08-08T06:43:33;7.00;;;1.90;;
60472;SDS011;46318;52.716;6.444;2023-08-08T06:46:06;2.92;;;1.30;;
60472;SDS011;46318;52.716;6.444;2023-08-08T06:48:33;6.45;;;1.60;;
60472;SDS011;46318;52.716;6.444;2023-08-08T06:50:59;2.42;;;1.63;;
60472;SDS011;46318;52.716;6.444;2023-08-08T06:53:27;5.10;;;2.03;;
60472;SDS011;46318;52.716;6.444;2023-08-08T06:56:05;6.18;;;1.70;;
60472;SDS011;46318;52.716;6.444;2023-08-08T06:58:33;5.20;;;2.35;;
60472;SDS011;46318;52.716;6.444;2023-08-08T07:00:59;2.50;;;1.48;;
60472;SDS011;46318;52.716;6.444;2023-08-08T07:03:25;2.38;;;1.10;;
60472;SDS011;46318;52.716;6.444;2023-08-08T07:05:51;4.20;;;1.52;;
60472;SDS011;46318;52.716;6.444;2023-08-08T07:08:18;6.22;;;1.80;;
60472;SDS011;46318;52.716;6.444;2023-08-08T07:10:45;3.42;;;1.40;;
60472;SDS011;46318;52.716;6.444;2023-08-08T07:13:11;5.00;;;1.35;;
60472;SDS011;46318;52.716;6.444;2023-08-08T07:15:37;5.35;;;1.65;;
60472;SDS011;46318;52.716;6.444;2023-08-08T07:18:03;3.70;;;1.35;;
60472;SDS011;46318;52.716;6.444;2023-08-08T07:20:30;5.07;;;1.55;;
60472;SDS011;46318;52.716;6.444;2023-08-08T07:22:55;5.28;;;1.55;;
60472;SDS011;46318;52.716;6.444;2023-08-08T07:25:21;4.88;;;1.35;;
60472;SDS011;46318;52.716;6.444;2023-08-08T07:27:48;5.35;;;1.33;;
60472;SDS011;46318;52.716;6.444;2023-08-08T07:30:13;4.75;;;1.58;;
60472;SDS011;46318;52.716;6.444;2023-08-08T07:32:47;7.97;;;1.52;;
60472;SDS011;46318;52.716;6.444;2023-08-08T07:35:13;4.13;;;1.25;;
60472;SDS011;46318;52.716;6.444;2023-08-08T07:37:40;5.30;;;1.20;;
60472;SDS011;46318;52.716;6.444;2023-08-08T07:40:18;11.95;;;3.22;;
60472;SDS011;46318;52.716;6.444;2023-08-08T07:42:46;2.38;;;1.27;;
60472;SDS011;46318;52.716;6.444;2023-08-08T07:45:15;4.22;;;1.50;;
60472;SDS011;46318;52.716;6.444;2023-08-08T07:47:44;5.05;;;1.50;;
60472;SDS011;46318;52.716;6.444;2023-08-08T07:50:11;4.18;;;1.80;;
60472;SDS011;46318;52.716;6.444;2023-08-08T07:52:37;2.85;;;1.30;;
60472;SDS011;46318;52.716;6.444;2023-08-08T07:55:08;3.35;;;1.05;;
60472;SDS011;46318;52.716;6.444;2023-08-08T07:57:35;2.33;;;1.75;;
60472;SDS011;46318;52.716;6.444;2023-08-08T08:00:06;1.98;;;1.08;;
60472;SDS011;46318;52.716;6.444;2023-08-08T08:02:36;3.75;;;1.35;;
60472;SDS011;46318;52.716;6.444;2023-08-08T08:05:15;3.67;;;1.42;;
60472;SDS011;46318;52.716;6.444;2023-08-08T08:07:41;6.05;;;1.77;;
60472;SDS011;46318;52.716;6.444;2023-08-08T08:10:08;2.97;;;1.00;;
60472;SDS011;46318;52.716;6.444;2023-08-08T08:12:38;4.68;;;1.45;;
60472;SDS011;46318;52.716;6.444;2023-08-08T08:15:06;2.92;;;1.02;;
60472;SDS011;46318;52.716;6.444;2023-08-08T08:17:33;6.53;;;1.30;;
60472;SDS011;46318;52.716;6.444;2023-08-08T08:19:59;3.83;;;1.60;;
60472;SDS011;46318;52.716;6.444;2023-08-08T08:22:30;4.47;;;1.20;;
60472;SDS011;46318;52.716;6.444;2023-08-08T08:24:59;5.65;;;1.48;;
60472;SDS011;46318;52.716;6.444;2023-08-08T08:27:26;2.65;;;1.20;;
60472;SDS011;46318;52.716;6.444;2023-08-08T08:29:52;3.22;;;1.40;;
60472;SDS011;46318;52.716;6.444;2023-08-08T08:32:18;2.78;;;1.05;;
60472;SDS011;46318;52.716;6.444;2023-08-08T08:34:47;4.30;;;1.30;;
60472;SDS011;46318;52.716;6.444;2023-08-08T08:37:13;4.97;;;1.45;;
60472;SDS011;46318;52.716;6.444;2023-08-08T08:39:42;3.08;;;1.13;;
60472;SDS011;46318;52.716;6.444;2023-08-08T08:42:08;4.57;;;1.33;;
60472;SDS011;46318;52.716;6.444;2023-08-08T08:44:39;4.85;;;1.40;;
60472;SDS011;46318;52.716;6.444;2023-08-08T08:47:07;4.80;;;1.10;;
60472;SDS011;46318;52.716;6.444;2023-08-08T08:49:36;3.78;;;1.60;;
60472;SDS011;46318;52.716;6.444;2023-08-08T08:52:04;4.65;;;1.42;;
60472;SDS011;46318;52.716;6.444;2023-08-08T08:54:31;2.80;;;1.30;;
60472;SDS011;46318;52.716;6.444;2023-08-08T08:56:58;2.72;;;1.13;;
60472;SDS011;46318;52.716;6.444;2023-08-08T08:59:24;2.28;;;1.13;;
60472;SDS011;46318;52.716;6.444;2023-08-08T09:01:51;2.22;;;1.10;;
60472;SDS011;46318;52.716;6.444;2023-08-08T09:04:21;4.60;;;1.17;;
60472;SDS011;46318;52.716;6.444;2023-08-08T09:06:51;3.67;;;1.00;;
60472;SDS011;46318;52.716;6.444;2023-08-08T09:09:26;2.83;;;1.20;;
60472;SDS011;46318;52.716;6.444;2023-08-08T09:11:56;3.58;;;1.48;;
60472;SDS011;46318;52.716;6.444;2023-08-08T09:14:23;3.92;;;0.98;;
60472;SDS011;46318;52.716;6.444;2023-08-08T09:16:51;4.07;;;1.35;;
60472;SDS011;46318;52.716;6.444;2023-08-08T09:19:22;5.60;;;1.10;;
60472;SDS011;46318;52.716;6.444;2023-08-08T09:21:49;3.28;;;1.27;;
60472;SDS011;46318;52.716;6.444;2023-08-08T09:24:16;4.07;;;1.40;;
60472;SDS011;46318;52.716;6.444;2023-08-08T09:26:43;3.65;;;1.23;;
60472;SDS011;46318;52.716;6.444;2023-08-08T09:29:11;3.10;;;1.38;;
60472;SDS011;46318;52.716;6.444;2023-08-08T09:34:07;1.88;;;0.90;;
60472;SDS011;46318;52.716;6.444;2023-08-08T09:36:33;4.38;;;1.20;;
60472;SDS011;46318;52.716;6.444;2023-08-08T09:39:00;5.50;;;2.20;;
60472;SDS011;46318;52.716;6.444;2023-08-08T09:41:26;4.60;;;1.50;;
60472;SDS011;46318;52.716;6.444;2023-08-08T09:43:53;3.90;;;1.30;;
60472;SDS011;46318;52.716;6.444;2023-08-08T09:46:19;2.17;;;1.13;;
60472;SDS011;46318;52.716;6.444;2023-08-08T09:48:49;3.35;;;1.17;;
60472;SDS011;46318;52.716;6.444;2023-08-08T09:51:22;3.08;;;1.40;;
60472;SDS011;46318;52.716;6.444;2023-08-08T09:53:48;3.15;;;1.25;;
60472;SDS011;46318;52.716;6.444;2023-08-08T09:56:27;3.15;;;1.40;;
60472;SDS011;46318;52.716;6.444;2023-08-08T09:58:59;5.40;;;1.17;;
60472;SDS011;46318;52.716;6.444;2023-08-08T10:01:33;3.13;;;1.15;;
60472;SDS011;46318;52.716;6.444;2023-08-08T10:04:12;3.20;;;1.15;;
60472;SDS011;46318;52.716;6.444;2023-08-08T10:07:04;4.13;;;1.42;;
60472;SDS011;46318;52.716;6.444;2023-08-08T10:09:33;3.20;;;1.30;;
60472;SDS011;46318;52.716;6.444;2023-08-08T10:12:07;2.15;;;1.30;;
60472;SDS011;46318;52.716;6.444;2023-08-08T10:14:36;3.30;;;1.52;;
60472;SDS011;46318;52.716;6.444;2023-08-08T10:17:06;3.83;;;1.45;;
60472;SDS011;46318;52.716;6.444;2023-08-08T10:19:41;4.63;;;1.20;;
60472;SDS011;46318;52.716;6.444;2023-08-08T10:22:22;3.80;;;1.35;;
60472;SDS011;46318;52.716;6.444;2023-08-08T10:24:53;5.00;;;1.38;;
60472;SDS011;46318;52.716;6.444;2023-08-08T10:27:38;3.20;;;1.50;;
60472;SDS011;46318;52.716;6.444;2023-08-08T10:30:12;2.63;;;1.33;;
60472;SDS011;46318;52.716;6.444;2023-08-08T10:32:42;3.80;;;1.60;;
60472;SDS011;46318;52.716;6.444;2023-08-08T10:35:17;2.88;;;1.45;;
60472;SDS011;46318;52.716;6.444;2023-08-08T10:37:53;2.30;;;1.48;;
60472;SDS011;46318;52.716;6.444;2023-08-08T10:40:19;2.53;;;1.25;;
60472;SDS011;46318;52.716;6.444;2023-08-08T10:42:46;1.92;;;1.20;;
60472;SDS011;46318;52.716;6.444;2023-08-08T10:45:13;3.45;;;1.20;;
60472;SDS011;46318;52.716;6.444;2023-08-08T10:47:43;2.72;;;1.40;;
60472;SDS011;46318;52.716;6.444;2023-08-08T10:50:14;2.33;;;1.30;;
60472;SDS011;46318;52.716;6.444;2023-08-08T10:52:54;4.60;;;1.25;;
60472;SDS011;46318;52.716;6.444;2023-08-08T10:55:35;3.75;;;1.20;;
60472;SDS011;46318;52.716;6.444;2023-08-08T11:00:34;2.70;;;1.25;;
60472;SDS011;46318;52.716;6.444;2023-08-08T11:03:10;6.15;;;1.83;;
60472;SDS011;46318;52.716;6.444;2023-08-08T11:05:36;5.68;;;1.70;;
60472;SDS011;46318;52.716;6.444;2023-08-08T11:08:04;3.78;;;1.52;;
60472;SDS011;46318;52.716;6.444;2023-08-08T11:10:38;3.33;;;1.40;;
60472;SDS011;46318;52.716;6.444;2023-08-08T11:13:06;3.13;;;1.67;;
60472;SDS011;46318;52.716;6.444;2023-08-08T11:15:33;2.85;;;1.55;;
60472;SDS011;46318;52.716;6.444;2023-08-08T11:18:02;3.38;;;1.60;;
60472;SDS011;46318;52.716;6.444;2023-08-08T11:20:31;2.72;;;1.60;;
60472;SDS011;46318;52.716;6.444;2023-08-08T11:22:59;3.83;;;1.50;;
60472;SDS011;46318;52.716;6.444;2023-08-08T11:25:45;2.85;;;1.45;;
60472;SDS011;46318;52.716;6.444;2023-08-08T11:28:12;4.25;;;1.55;;
60472;SDS011;46318;52.716;6.444;2023-08-08T11:30:41;5.00;;;1.75;;
60472;SDS011;46318;52.716;6.444;2023-08-08T11:33:12;5.43;;;1.58;;
60472;SDS011;46318;52.716;6.444;2023-08-08T11:35:43;4.82;;;1.65;;
60472;SDS011;46318;52.716;6.444;2023-08-08T11:38:14;9.93;;;2.92;;
60472;SDS011;46318;52.716;6.444;2023-08-08T11:44:01;2.70;;;1.40;;
60472;SDS011;46318;52.716;6.444;2023-08-08T11:46:34;3.47;;;1.40;;
60472;SDS011;46318;52.716;6.444;2023-08-08T11:49:07;2.63;;;1.40;;
60472;SDS011;46318;52.716;6.444;2023-08-08T11:51:34;2.10;;;1.70;;
60472;SDS011;46318;52.716;6.444;2023-08-08T11:54:03;4.95;;;1.90;;
60472;SDS011;46318;52.716;6.444;2023-08-08T11:56:38;4.65;;;1.83;;
60472;SDS011;46318;52.716;6.444;2023-08-08T11:59:05;3.88;;;1.85;;
60472;SDS011;46318;52.716;6.444;2023-08-08T12:01:33;5.32;;;2.00;;
60472;SDS011;46318;52.716;6.444;2023-08-08T12:04:09;4.50;;;1.90;;
60472;SDS011;46318;52.716;6.444;2023-08-08T12:06:44;5.28;;;2.28;;
60472;SDS011;46318;52.716;6.444;2023-08-08T12:09:12;3.90;;;1.90;;
60472;SDS011;46318;52.716;6.444;2023-08-08T12:11:39;4.65;;;1.70;;
60472;SDS011;46318;52.716;6.444;2023-08-08T12:14:06;10.10;;;2.08;;
60472;SDS011;46318;52.716;6.444;2023-08-08T12:16:37;3.88;;;1.83;;
60472;SDS011;46318;52.716;6.444;2023-08-08T12:19:06;2.58;;;1.60;;
60472;SDS011;46318;52.716;6.444;2023-08-08T12:21:36;4.20;;;1.65;;
60472;SDS011;46318;52.716;6.444;2023-08-08T12:24:02;6.53;;;1.92;;
60472;SDS011;46318;52.716;6.444;2023-08-08T12:26:28;3.67;;;1.80;;
60472;SDS011;46318;52.716;6.444;2023-08-08T12:28:54;4.55;;;1.60;;
60472;SDS011;46318;52.716;6.444;2023-08-08T12:31:20;5.50;;;1.75;;
60472;SDS011;46318;52.716;6.444;2023-08-08T12:33:49;3.38;;;1.58;;
60472;SDS011;46318;52.716;6.444;2023-08-08T12:36:18;3.67;;;1.33;;
60472;SDS011;46318;52.716;6.444;2023-08-08T12:38:44;3.35;;;1.55;;
60472;SDS011;46318;52.716;6.444;2023-08-08T12:41:11;4.68;;;1.50;;
60472;SDS011;46318;52.716;6.444;2023-08-08T12:43:38;2.13;;;1.27;;
60472;SDS011;46318;52.716;6.444;2023-08-08T12:46:05;2.20;;;1.50;;
60472;SDS011;46318;52.716;6.444;2023-08-08T12:48:31;3.25;;;1.60;;
60472;SDS011;46318;52.716;6.444;2023-08-08T12:51:02;2.22;;;1.15;;
60472;SDS011;46318;52.716;6.444;2023-08-08T12:53:30;3.53;;;1.38;;
60472;SDS011;46318;52.716;6.444;2023-08-08T12:55:55;3.88;;;1.17;;
60472;SDS011;46318;52.716;6.444;2023-08-08T12:58:21;3.55;;;1.48;;
60472;SDS011;46318;52.716;6.444;2023-08-08T13:00:47;3.92;;;1.40;;
60472;SDS011;46318;52.716;6.444;2023-08-08T13:03:13;4.57;;;1.40;;
60472;SDS011;46318;52.716;6.444;2023-08-08T13:05:39;4.15;;;1.50;;
60472;SDS011;46318;52.716;6.444;2023-08-08T13:08:05;3.03;;;1.35;;
60472;SDS011;46318;52.716;6.444;2023-08-08T13:10:31;2.72;;;1.10;;
60472;SDS011;46318;52.716;6.444;2023-08-08T13:12:57;5.13;;;1.63;;
60472;SDS011;46318;52.716;6.444;2023-08-08T13:15:23;5.60;;;1.60;;
60472;SDS011;46318;52.716;6.444;2023-08-08T13:17:49;2.80;;;1.52;;
60472;SDS011;46318;52.716;6.444;2023-08-08T13:20:15;3.50;;;1.88;;
60472;SDS011;46318;52.716;6.444;2023-08-08T13:22:47;4.13;;;1.50;;
60472;SDS011;46318;52.716;6.444;2023-08-08T13:25:16;3.88;;;1.60;;
60472;SDS011;46318;52.716;6.444;2023-08-08T13:27:44;9.98;;;1.92;;
60472;SDS011;46318;52.716;6.444;2023-08-08T13:30:12;3.17;;;1.58;;
60472;SDS011;46318;52.716;6.444;2023-08-08T13:32:41;2.65;;;1.45;;
60472;SDS011;46318;52.716;6.444;2023-08-08T13:35:07;3.67;;;1.50;;
60472;SDS011;46318;52.716;6.444;2023-08-08T13:37:33;4.68;;;1.60;;
60472;SDS011;46318;52.716;6.444;2023-08-08T13:39:59;3.08;;;1.80;;
60472;SDS011;46318;52.716;6.444;2023-08-08T13:42:25;4.30;;;1.70;;
60472;SDS011;46318;52.716;6.444;2023-08-08T13:44:53;4.82;;;1.63;;
60472;SDS011;46318;52.716;6.444;2023-08-08T13:47:19;5.03;;;1.92;;
60472;SDS011;46318;52.716;6.444;2023-08-08T13:49:45;2.95;;;1.63;;
60472;SDS011;46318;52.716;6.444;2023-08-08T13:52:11;7.63;;;2.28;;
60472;SDS011;46318;52.716;6.444;2023-08-08T13:54:38;4.82;;;1.80;;
60472;SDS011;46318;52.716;6.444;2023-08-08T13:57:04;4.68;;;1.77;;
60472;SDS011;46318;52.716;6.444;2023-08-08T13:59:30;3.55;;;1.70;;
60472;SDS011;46318;52.716;6.444;2023-08-08T14:01:56;4.28;;;1.77;;
60472;SDS011;46318;52.716;6.444;2023-08-08T14:04:22;5.00;;;1.92;;
60472;SDS011;46318;52.716;6.444;2023-08-08T14:06:47;3.00;;;1.23;;
60472;SDS011;46318;52.716;6.444;2023-08-08T14:09:13;3.67;;;1.60;;
60472;SDS011;46318;52.716;6.444;2023-08-08T14:11:39;3.58;;;1.45;;
60472;SDS011;46318;52.716;6.444;2023-08-08T14:14:05;2.70;;;1.23;;
60472;SDS011;46318;52.716;6.444;2023-08-08T14:16:31;1.70;;;1.00;;
60472;SDS011;46318;52.716;6.444;2023-08-08T14:18:57;3.35;;;1.50;;
60472;SDS011;46318;52.716;6.444;2023-08-08T14:21:26;2.78;;;1.30;;
60472;SDS011;46318;52.716;6.444;2023-08-08T14:23:52;3.67;;;1.38;;
60472;SDS011;46318;52.716;6.444;2023-08-08T14:26:18;3.13;;;1.45;;
60472;SDS011;46318;52.716;6.444;2023-08-08T14:28:46;2.78;;;1.70;;
60472;SDS011;46318;52.716;6.444;2023-08-08T14:31:12;4.03;;;1.45;;
60472;SDS011;46318;52.716;6.444;2023-08-08T14:33:38;4.85;;;1.35;;
60472;SDS011;46318;52.716;6.444;2023-08-08T14:36:04;3.97;;;1.75;;
60472;SDS011;46318;52.716;6.444;2023-08-08T14:38:36;5.03;;;1.70;;
60472;SDS011;46318;52.716;6.444;2023-08-08T14:41:02;3.65;;;1.50;;
60472;SDS011;46318;52.716;6.444;2023-08-08T14:43:29;3.55;;;1.50;;
60472;SDS011;46318;52.716;6.444;2023-08-08T14:45:55;3.70;;;1.33;;
60472;SDS011;46318;52.716;6.444;2023-08-08T14:48:24;4.47;;;1.85;;
60472;SDS011;46318;52.716;6.444;2023-08-08T14:50:53;2.72;;;1.30;;
60472;SDS011;46318;52.716;6.444;2023-08-08T14:53:23;4.13;;;1.40;;
60472;SDS011;46318;52.716;6.444;2023-08-08T14:55:52;2.03;;;1.30;;
60472;SDS011;46318;52.716;6.444;2023-08-08T14:58:19;3.30;;;1.52;;
60472;SDS011;46318;52.716;6.444;2023-08-08T15:00:45;2.80;;;1.25;;
60472;SDS011;46318;52.716;6.444;2023-08-08T15:03:12;3.10;;;1.20;;